createdAt,value
2018-05-15T00:00:45.809Z,13.14
2018-05-15T00:02:14.047Z,13.17
2018-05-15T00:03:40.243Z,13.17
2018-05-15T00:05:08.486Z,13.18
2018-05-15T00:06:34.888Z,13.17
2018-05-15T00:08:03.107Z,13.15
2018-05-15T00:09:29.256Z,13.13
2018-05-15T00:10:56.688Z,13.12
2018-05-15T00:12:24.064Z,13.11
2018-05-15T00:13:51.368Z,13.11
2018-05-15T00:15:19.785Z,13.12
2018-05-15T00:16:46.095Z,13.13
2018-05-15T00:18:14.408Z,13.15
2018-05-15T00:19:41.793Z,13.18
2018-05-15T00:21:08.147Z,13.20
2018-05-15T00:22:36.446Z,13.25
2018-05-15T00:24:02.734Z,13.29
2018-05-15T00:25:30.056Z,13.32
2018-05-15T00:26:57.448Z,13.35
2018-05-15T00:28:24.931Z,13.35
2018-05-15T00:29:52.391Z,13.33
2018-05-15T00:31:19.607Z,13.28
2018-05-15T00:32:47.947Z,13.25
2018-05-15T00:34:15.140Z,13.23
2018-05-15T00:35:42.670Z,13.22
2018-05-15T00:37:09.044Z,13.20
2018-05-15T00:38:36.405Z,13.17
2018-05-15T00:40:03.732Z,13.14
2018-05-15T00:41:31.021Z,13.08
2018-05-15T00:42:58.347Z,13.04
2018-05-15T00:44:25.662Z,13.02
2018-05-15T00:45:53.037Z,13.02
2018-05-15T00:47:20.673Z,13.01
2018-05-15T00:48:48.882Z,13.00
2018-05-15T00:50:15.255Z,12.95
2018-05-15T00:51:42.619Z,12.92
2018-05-15T00:53:09.961Z,12.87
2018-05-15T00:54:37.290Z,12.85
2018-05-15T00:56:04.622Z,12.84
2018-05-15T00:57:32.965Z,12.84
2018-05-15T00:58:59.318Z,12.82
2018-05-15T01:00:27.694Z,12.79
2018-05-15T01:01:53.876Z,12.77
2018-05-15T01:03:21.187Z,12.77
2018-05-15T01:04:48.565Z,12.75
2018-05-15T01:06:16.991Z,12.73
2018-05-15T01:07:44.279Z,12.67
2018-05-15T01:09:11.765Z,12.63
2018-05-15T01:10:37.927Z,12.63
2018-05-15T01:12:06.298Z,12.64
2018-05-15T01:13:33.633Z,12.67
2018-05-15T01:14:59.973Z,12.69
2018-05-15T01:16:27.430Z,12.69
2018-05-15T01:17:54.909Z,12.73
2018-05-15T01:19:23.253Z,12.77
2018-05-15T01:20:49.674Z,12.80
2018-05-15T01:22:16.732Z,12.81
2018-05-15T01:23:44.075Z,12.82
2018-05-15T01:25:11.447Z,12.84
2018-05-15T01:26:38.654Z,12.87
2018-05-15T01:28:05.990Z,12.89
2018-05-15T01:29:34.369Z,12.90
2018-05-15T01:31:01.714Z,12.87
2018-05-15T01:32:28.119Z,12.82
2018-05-15T01:33:55.392Z,12.77
2018-05-15T01:35:22.856Z,12.75
2018-05-15T01:36:50.158Z,12.76
2018-05-15T01:38:17.608Z,12.78
2018-05-15T01:39:44.879Z,12.80
2018-05-15T01:41:12.212Z,12.81
2018-05-15T01:42:39.593Z,12.84
2018-05-15T01:44:06.863Z,12.80
2018-05-15T01:45:34.130Z,12.78
2018-05-15T01:47:01.472Z,12.75
2018-05-15T01:48:30.183Z,12.73
2018-05-15T01:49:57.377Z,12.70
2018-05-15T01:51:23.835Z,12.67
2018-05-15T01:52:52.240Z,12.65
2018-05-15T01:54:18.688Z,12.61
2018-05-15T01:55:45.974Z,12.59
2018-05-15T01:57:13.312Z,12.60
2018-05-15T01:58:41.679Z,12.60
2018-05-15T02:00:07.989Z,12.61
2018-05-15T02:01:36.291Z,12.60
2018-05-15T02:03:02.476Z,12.58
2018-05-15T02:04:30.631Z,12.60
2018-05-15T02:05:57.032Z,12.63
2018-05-15T02:07:25.394Z,12.63
2018-05-15T02:08:51.841Z,12.57
2018-05-15T02:10:19.263Z,12.50
2018-05-15T02:11:47.559Z,12.45
2018-05-15T02:13:15.054Z,12.42
2018-05-15T02:14:41.483Z,12.41
2018-05-15T02:16:09.873Z,12.42
2018-05-15T02:17:37.130Z,12.42
2018-05-15T02:19:04.549Z,12.38
2018-05-15T02:20:31.795Z,12.36
2018-05-15T02:21:58.202Z,12.36
2018-05-15T02:23:26.552Z,12.33
2018-05-15T02:24:53.090Z,12.31
2018-05-15T02:26:20.349Z,12.30
2018-05-15T02:27:47.847Z,12.28
2018-05-15T02:29:15.077Z,12.24
2018-05-15T02:30:42.533Z,12.24
2018-05-15T02:32:09.786Z,12.24
2018-05-15T02:33:38.206Z,12.26
2018-05-15T02:35:04.585Z,12.26
2018-05-15T02:36:32.908Z,12.27
2018-05-15T02:37:58.929Z,12.24
2018-05-15T02:39:26.229Z,12.21
2018-05-15T02:40:53.666Z,12.19
2018-05-15T02:42:21.059Z,12.19
2018-05-15T02:43:48.304Z,12.17
2018-05-15T02:45:15.704Z,12.19
2018-05-15T02:46:43.933Z,12.20
2018-05-15T02:48:11.197Z,12.21
2018-05-15T02:49:38.526Z,12.25
2018-05-15T02:51:04.868Z,12.30
2018-05-15T02:52:32.104Z,12.33
2018-05-15T02:54:00.289Z,12.35
2018-05-15T02:55:26.511Z,12.37
2018-05-15T02:56:53.936Z,12.39
2018-05-15T02:58:21.279Z,12.40
2018-05-15T02:59:49.762Z,12.42
2018-05-15T03:01:16.021Z,12.39
2018-05-15T03:02:44.663Z,12.34
2018-05-15T03:04:11.081Z,12.29
2018-05-15T03:05:38.306Z,12.21
2018-05-15T03:07:05.658Z,12.21
2018-05-15T03:08:33.062Z,12.24
2018-05-15T03:10:01.379Z,12.21
2018-05-15T03:11:28.852Z,12.16
2018-05-15T03:12:56.220Z,12.11
2018-05-15T03:14:22.631Z,12.04
2018-05-15T03:15:49.779Z,11.98
2018-05-15T03:17:18.044Z,11.94
2018-05-15T03:18:44.360Z,11.97
2018-05-15T03:20:11.590Z,12.02
2018-05-15T03:21:39.850Z,12.08
2018-05-15T03:23:05.964Z,12.11
2018-05-15T03:24:33.284Z,12.05
2018-05-15T03:26:00.406Z,11.98
2018-05-15T03:27:28.671Z,11.89
2018-05-15T03:28:56.128Z,11.81
2018-05-15T03:30:22.380Z,11.78
2018-05-15T03:31:49.591Z,11.74
2018-05-15T03:33:16.901Z,11.76
2018-05-15T03:34:45.223Z,11.79
2018-05-15T03:36:12.603Z,11.75
2018-05-15T03:37:38.965Z,11.70
2018-05-15T03:39:06.359Z,11.69
2018-05-15T03:40:34.528Z,11.76
2018-05-15T03:42:00.810Z,11.84
2018-05-15T03:43:28.106Z,11.91
2018-05-15T03:44:55.467Z,11.98
2018-05-15T03:46:22.766Z,12.05
2018-05-15T03:47:50.031Z,12.09
2018-05-15T03:49:18.472Z,12.14
2018-05-15T03:50:44.905Z,12.17
2018-05-15T03:52:12.265Z,12.21
2018-05-15T03:53:39.711Z,12.24
2018-05-15T03:55:07.108Z,12.28
2018-05-15T03:56:35.441Z,12.31
2018-05-15T03:58:02.965Z,12.35
2018-05-15T03:59:30.183Z,12.37
2018-05-15T04:00:56.505Z,12.39
2018-05-15T04:02:24.680Z,12.43
2018-05-15T04:03:51.102Z,12.45
2018-05-15T04:05:18.467Z,12.48
2018-05-15T04:06:45.718Z,12.50
2018-05-15T04:08:12.950Z,12.53
2018-05-15T04:09:41.330Z,12.56
2018-05-15T04:11:08.872Z,12.53
2018-05-15T04:12:35.053Z,12.48
2018-05-15T04:14:02.345Z,12.44
2018-05-15T04:15:29.532Z,12.39
2018-05-15T04:16:57.807Z,12.38
2018-05-15T04:18:24.352Z,12.36
2018-05-15T04:19:51.599Z,12.39
2018-05-15T04:21:18.906Z,12.45
2018-05-15T04:22:46.256Z,12.48
2018-05-15T04:24:13.507Z,12.50
2018-05-15T04:25:40.924Z,12.53
2018-05-15T04:27:08.112Z,12.53
2018-05-15T04:28:35.382Z,12.52
2018-05-15T04:30:02.821Z,12.55
2018-05-15T04:31:30.075Z,12.56
2018-05-15T04:32:58.761Z,12.57
2018-05-15T04:34:25.996Z,12.55
2018-05-15T04:35:53.429Z,12.55
2018-05-15T04:37:19.753Z,12.56
2018-05-15T04:38:47.186Z,12.55
2018-05-15T04:40:14.676Z,12.54
2018-05-15T04:41:42.934Z,12.53
2018-05-15T04:43:09.303Z,12.51
2018-05-15T04:44:36.616Z,12.49
2018-05-15T04:46:03.890Z,12.46
2018-05-15T04:47:31.095Z,12.46
2018-05-15T04:48:58.459Z,12.45
2018-05-15T04:50:25.956Z,12.46
2018-05-15T04:51:53.426Z,12.47
2018-05-15T04:53:20.759Z,12.49
2018-05-15T04:54:49.226Z,12.52
2018-05-15T04:56:15.439Z,12.54
2018-05-15T04:57:42.813Z,12.58
2018-05-15T04:59:11.087Z,12.61
2018-05-15T05:00:37.421Z,12.67
2018-05-15T05:02:04.909Z,12.71
2018-05-15T05:03:32.213Z,12.75
2018-05-15T05:04:59.534Z,12.79
2018-05-15T05:06:26.779Z,12.83
2018-05-15T05:07:55.212Z,12.87
2018-05-15T05:09:22.698Z,12.90
2018-05-15T05:10:49.099Z,12.92
2018-05-15T05:12:16.569Z,12.92
2018-05-15T05:13:43.761Z,12.94
2018-05-15T05:15:12.336Z,12.96
2018-05-15T05:16:39.590Z,12.98
2018-05-15T05:18:06.820Z,13.00
2018-05-15T05:19:34.111Z,13.02
2018-05-15T05:21:01.518Z,13.05
2018-05-15T05:22:28.873Z,13.07
2018-05-15T05:23:56.202Z,13.09
2018-05-15T05:25:22.751Z,13.13
2018-05-15T05:26:50.038Z,13.18
2018-05-15T05:28:18.633Z,13.22
2018-05-15T05:29:44.828Z,13.28
2018-05-15T05:31:13.258Z,13.34
2018-05-15T05:32:39.768Z,13.38
2018-05-15T05:34:08.153Z,13.42
2018-05-15T05:35:35.376Z,13.45
2018-05-15T05:37:01.729Z,13.50
2018-05-15T05:38:30.174Z,13.55
2018-05-15T05:39:56.530Z,13.63
2018-05-15T05:41:24.048Z,13.72
2018-05-15T05:42:51.477Z,13.83
2018-05-15T05:44:18.857Z,13.96
2018-05-15T05:45:46.355Z,14.08
2018-05-15T05:47:13.806Z,14.18
2018-05-15T05:48:41.299Z,14.32
2018-05-15T05:50:09.709Z,14.46
2018-05-15T05:51:37.129Z,14.59
2018-05-15T05:53:04.275Z,14.72
2018-05-15T05:54:30.565Z,14.81
2018-05-15T05:55:59.067Z,14.94
2018-05-15T05:57:25.406Z,15.05
2018-05-15T05:58:52.714Z,15.13
2018-05-15T06:00:20.188Z,15.22
2018-05-15T06:01:47.703Z,15.32
2018-05-15T06:03:15.052Z,15.39
2018-05-15T06:04:42.550Z,15.47
2018-05-15T06:06:09.866Z,15.58
2018-05-15T06:07:37.385Z,15.68
2018-05-15T06:09:05.926Z,15.78
2018-05-15T06:10:32.167Z,15.90
2018-05-15T06:11:59.332Z,15.98
2018-05-15T06:13:26.725Z,16.06
2018-05-15T06:14:54.103Z,16.10
2018-05-15T06:16:21.499Z,16.11
2018-05-15T06:17:49.174Z,16.09
2018-05-15T06:19:16.541Z,16.09
2018-05-15T06:20:44.970Z,16.08
2018-05-15T06:22:12.213Z,16.11
2018-05-15T06:23:39.624Z,16.14
2018-05-15T06:25:05.964Z,16.19
2018-05-15T06:26:33.244Z,16.22
2018-05-15T06:28:00.530Z,16.29
2018-05-15T06:29:28.146Z,16.40
2018-05-15T06:30:55.566Z,16.54
2018-05-15T06:32:23.999Z,16.70
2018-05-15T06:33:50.402Z,16.88
2018-05-15T06:35:18.813Z,16.98
2018-05-15T06:36:45.354Z,17.07
2018-05-15T06:38:12.740Z,17.16
2018-05-15T06:39:40.247Z,17.22
2018-05-15T06:41:08.727Z,17.30
2018-05-15T06:42:35.039Z,17.38
2018-05-15T06:44:02.373Z,17.43
2018-05-15T06:45:29.760Z,17.47
2018-05-15T06:46:58.251Z,17.54
2018-05-15T06:48:24.694Z,17.59
2018-05-15T06:49:52.113Z,17.62
2018-05-15T06:51:19.433Z,17.65
2018-05-15T06:52:46.899Z,17.70
2018-05-15T06:54:14.393Z,17.75
2018-05-15T06:55:41.869Z,17.81
2018-05-15T06:57:10.248Z,17.87
2018-05-15T06:58:37.762Z,17.91
2018-05-15T07:00:05.173Z,17.94
2018-05-15T07:01:31.503Z,18.01
2018-05-15T07:02:58.714Z,18.07
2018-05-15T07:04:27.258Z,18.16
2018-05-15T07:05:54.784Z,18.22
2018-05-15T07:07:21.327Z,18.30
2018-05-15T07:08:48.748Z,18.36
2018-05-15T07:10:16.244Z,18.44
2018-05-15T07:11:43.693Z,18.51
2018-05-15T07:13:11.165Z,18.58
2018-05-15T07:14:38.695Z,18.65
2018-05-15T07:16:06.155Z,18.72
2018-05-15T07:17:34.688Z,18.75
2018-05-15T07:19:02.055Z,18.83
2018-05-15T07:20:28.460Z,18.92
2018-05-15T07:21:57.012Z,19.00
2018-05-15T07:23:24.511Z,19.09
2018-05-15T07:24:51.142Z,19.16
2018-05-15T07:26:18.638Z,19.25
2018-05-15T07:27:46.015Z,19.32
2018-05-15T07:29:13.479Z,19.39
2018-05-15T07:30:41.077Z,19.43
2018-05-15T07:32:08.637Z,19.47
2018-05-15T07:33:36.219Z,19.51
2018-05-15T07:35:03.730Z,19.53
2018-05-15T07:36:32.156Z,19.56
2018-05-15T07:37:59.723Z,19.62
2018-05-15T07:39:26.268Z,19.67
2018-05-15T07:40:53.843Z,19.75
2018-05-15T07:42:22.108Z,19.82
2018-05-15T07:43:48.060Z,19.86
2018-05-15T07:45:15.388Z,19.91
2018-05-15T07:46:42.962Z,19.95
2018-05-15T07:48:10.520Z,19.97
2018-05-15T07:49:37.954Z,20.00
2018-05-15T07:51:05.556Z,20.04
2018-05-15T07:52:32.796Z,20.06
2018-05-15T07:54:00.239Z,20.09
2018-05-15T07:55:27.640Z,20.11
2018-05-15T07:56:55.186Z,20.14
2018-05-15T07:58:23.707Z,20.16
2018-05-15T07:59:50.140Z,20.18
2018-05-15T08:01:17.734Z,20.19
2018-05-15T08:02:46.299Z,20.22
2018-05-15T08:04:12.879Z,20.26
2018-05-15T08:05:40.464Z,20.32
2018-05-15T08:07:07.749Z,20.38
2018-05-15T08:08:35.317Z,20.42
2018-05-15T08:10:02.802Z,20.47
2018-05-15T08:11:30.252Z,20.56
2018-05-15T08:12:57.818Z,20.64
2018-05-15T08:14:26.476Z,20.68
2018-05-15T08:15:52.886Z,20.74
2018-05-15T08:17:20.485Z,20.77
2018-05-15T08:18:48.910Z,20.79
2018-05-15T08:20:16.430Z,20.81
2018-05-15T08:21:42.975Z,20.89
2018-05-15T08:23:10.526Z,20.93
2018-05-15T08:24:39.092Z,20.99
2018-05-15T08:26:05.375Z,21.07
2018-05-15T08:27:33.993Z,21.18
2018-05-15T08:29:01.498Z,21.24
2018-05-15T08:30:28.000Z,21.33
2018-05-15T08:31:55.470Z,21.36
2018-05-15T08:33:23.022Z,21.37
2018-05-15T08:34:50.415Z,21.35
2018-05-15T08:36:17.948Z,21.30
2018-05-15T08:37:45.507Z,21.26
2018-05-15T08:39:13.951Z,21.27
2018-05-15T08:40:40.643Z,21.29
2018-05-15T08:42:08.155Z,21.35
2018-05-15T08:43:35.767Z,21.38
2018-05-15T08:45:03.150Z,21.49
2018-05-15T08:46:30.618Z,21.56
2018-05-15T08:47:58.197Z,21.61
2018-05-15T08:49:25.627Z,21.63
2018-05-15T08:50:54.212Z,21.63
2018-05-15T08:52:20.674Z,21.65
2018-05-15T08:53:48.096Z,21.64
2018-05-15T08:55:16.655Z,21.67
2018-05-15T08:56:43.133Z,21.72
2018-05-15T08:58:10.650Z,21.77
2018-05-15T08:59:38.186Z,21.83
2018-05-15T09:01:05.605Z,21.90
2018-05-15T09:02:33.101Z,21.93
2018-05-15T09:04:01.525Z,21.92
2018-05-15T09:05:29.007Z,21.94
2018-05-15T09:06:55.647Z,21.97
2018-05-15T09:08:23.246Z,22.00
2018-05-15T09:09:51.732Z,22.02
2018-05-15T09:11:19.350Z,22.05
2018-05-15T09:12:45.934Z,22.10
2018-05-15T09:14:13.502Z,22.16
2018-05-15T09:15:41.111Z,22.24
2018-05-15T09:17:09.616Z,22.28
2018-05-15T09:18:37.186Z,22.30
2018-05-15T09:20:04.521Z,22.34
2018-05-15T09:21:30.986Z,22.34
2018-05-15T09:22:58.487Z,22.36
2018-05-15T09:24:26.221Z,22.44
2018-05-15T09:25:53.673Z,22.51
2018-05-15T09:27:22.405Z,22.50
2018-05-15T09:28:48.877Z,22.47
2018-05-15T09:30:17.656Z,22.45
2018-05-15T09:31:43.974Z,22.48
2018-05-15T09:33:11.577Z,22.52
2018-05-15T09:34:40.143Z,22.55
2018-05-15T09:36:07.665Z,22.58
2018-05-15T09:37:35.172Z,22.61
2018-05-15T09:39:02.795Z,22.67
2018-05-15T09:40:29.090Z,22.74
2018-05-15T09:41:57.526Z,22.75
2018-05-15T09:43:25.066Z,22.72
2018-05-15T09:44:51.640Z,22.74
2018-05-15T09:46:19.019Z,22.78
2018-05-15T09:47:46.745Z,22.79
2018-05-15T09:49:14.150Z,22.81
2018-05-15T09:50:41.585Z,22.80
2018-05-15T09:52:10.143Z,22.80
2018-05-15T09:53:36.746Z,22.80
2018-05-15T09:55:04.291Z,22.83
2018-05-15T09:56:31.775Z,22.85
2018-05-15T09:57:59.431Z,22.89
2018-05-15T09:59:26.937Z,22.91
2018-05-15T10:00:55.581Z,22.97
2018-05-15T10:02:22.091Z,23.04
2018-05-15T10:03:49.611Z,23.07
2018-05-15T10:05:17.209Z,23.11
2018-05-15T10:06:44.865Z,23.17
2018-05-15T10:08:12.568Z,23.24
2018-05-15T10:09:40.916Z,23.29
2018-05-15T10:11:07.468Z,23.28
2018-05-15T10:12:34.951Z,23.28
2018-05-15T10:14:03.570Z,23.27
2018-05-15T10:15:30.017Z,23.29
2018-05-15T10:16:58.694Z,23.33
2018-05-15T10:18:26.278Z,23.39
2018-05-15T10:19:52.990Z,23.36
2018-05-15T10:21:20.572Z,23.32
2018-05-15T10:22:49.028Z,23.34
2018-05-15T10:24:15.651Z,23.35
2018-05-15T10:25:44.107Z,23.39
2018-05-15T10:27:10.752Z,23.43
2018-05-15T10:28:39.315Z,23.51
2018-05-15T10:30:05.978Z,23.59
2018-05-15T10:31:33.356Z,23.65
2018-05-15T10:33:01.950Z,23.68
2018-05-15T10:34:28.551Z,23.65
2018-05-15T10:35:56.089Z,23.60
2018-05-15T10:37:23.553Z,23.61
2018-05-15T10:38:50.894Z,23.61
2018-05-15T10:40:18.405Z,23.58
2018-05-15T10:41:46.015Z,23.58
2018-05-15T10:43:13.558Z,23.61
2018-05-15T10:44:41.189Z,23.61
2018-05-15T10:46:08.639Z,23.58
2018-05-15T10:47:36.154Z,23.59
2018-05-15T10:49:03.831Z,23.62
2018-05-15T10:50:31.301Z,23.67
2018-05-15T10:51:59.918Z,23.81
2018-05-15T10:53:26.639Z,23.97
2018-05-15T10:54:55.194Z,24.14
2018-05-15T10:56:21.684Z,24.20
2018-05-15T10:57:49.223Z,24.23
2018-05-15T10:59:16.956Z,24.34
2018-05-15T11:00:45.471Z,24.41
2018-05-15T11:02:12.087Z,24.52
2018-05-15T11:03:39.569Z,24.61
2018-05-15T11:05:07.175Z,24.76
2018-05-15T11:06:35.536Z,24.93
2018-05-15T11:08:02.108Z,24.97
2018-05-15T11:09:30.600Z,24.93
2018-05-15T11:10:57.232Z,24.72
2018-05-15T11:12:24.729Z,24.52
2018-05-15T11:13:52.324Z,24.35
2018-05-15T11:15:25.918Z,24.24
2018-05-15T11:16:47.325Z,24.25
2018-05-15T11:18:14.792Z,24.29
2018-05-15T11:19:42.434Z,24.25
2018-05-15T11:21:09.982Z,24.29
2018-05-15T11:22:37.745Z,24.29
2018-05-15T11:24:05.331Z,24.47
2018-05-15T11:25:32.800Z,24.65
2018-05-15T11:27:01.277Z,24.78
2018-05-15T11:28:27.872Z,24.76
2018-05-15T11:29:55.367Z,24.65
2018-05-15T11:31:22.913Z,24.71
2018-05-15T11:32:50.476Z,24.81
2018-05-15T11:34:18.209Z,24.94
2018-05-15T11:35:46.004Z,25.08
2018-05-15T11:37:14.406Z,25.14
2018-05-15T11:38:40.811Z,25.17
2018-05-15T11:40:08.461Z,25.14
2018-05-15T11:41:36.977Z,25.09
2018-05-15T11:43:03.492Z,24.92
2018-05-15T11:44:32.088Z,24.77
2018-05-15T11:45:58.693Z,24.59
2018-05-15T11:47:27.740Z,24.58
2018-05-15T11:48:54.804Z,24.68
2018-05-15T11:50:22.764Z,24.68
2018-05-15T11:51:49.893Z,24.55
2018-05-15T11:53:18.313Z,24.45
2018-05-15T11:54:45.175Z,24.31
2018-05-15T11:56:11.809Z,24.34
2018-05-15T11:57:39.196Z,24.44
2018-05-15T11:59:06.722Z,24.62
2018-05-15T12:00:34.317Z,24.88
2018-05-15T12:02:01.910Z,25.13
2018-05-15T12:03:29.459Z,25.18
2018-05-15T12:04:57.055Z,25.20
2018-05-15T12:06:24.661Z,25.20
2018-05-15T12:07:52.303Z,25.20
2018-05-15T12:09:19.894Z,25.23
2018-05-15T12:10:48.699Z,25.24
2018-05-15T12:12:16.261Z,25.23
2018-05-15T12:13:42.892Z,25.23
2018-05-15T12:15:11.551Z,25.15
2018-05-15T12:16:37.995Z,25.05
2018-05-15T12:18:06.710Z,24.87
2018-05-15T12:19:34.148Z,24.72
2018-05-15T12:21:00.463Z,24.62
2018-05-15T12:22:27.883Z,24.66
2018-05-15T12:23:55.572Z,24.76
2018-05-15T12:25:23.025Z,24.75
2018-05-15T12:26:50.436Z,24.74
2018-05-15T12:28:19.083Z,24.64
2018-05-15T12:29:45.617Z,24.44
2018-05-15T12:31:13.260Z,24.20
2018-05-15T12:32:40.791Z,24.08
2018-05-15T12:34:08.463Z,23.91
2018-05-15T12:35:35.806Z,23.79
2018-05-15T12:37:04.351Z,23.62
2018-05-15T12:38:31.766Z,23.50
2018-05-15T12:39:59.276Z,23.35
2018-05-15T12:41:26.976Z,23.25
2018-05-15T12:42:54.395Z,23.21
2018-05-15T12:44:21.907Z,23.20
2018-05-15T12:45:49.468Z,23.22
2018-05-15T12:47:16.006Z,23.35
2018-05-15T12:48:43.684Z,23.50
2018-05-15T12:50:11.139Z,23.60
2018-05-15T12:51:38.740Z,23.70
2018-05-15T12:53:07.538Z,23.83
2018-05-15T12:54:33.927Z,23.79
2018-05-15T12:56:01.494Z,23.63
2018-05-15T12:57:28.957Z,23.48
2018-05-15T12:58:56.546Z,23.26
2018-05-15T13:00:24.903Z,23.10
2018-05-15T13:01:51.591Z,22.88
2018-05-15T13:03:20.103Z,22.77
2018-05-15T13:04:47.511Z,22.62
2018-05-15T13:06:14.048Z,22.46
2018-05-15T13:07:41.524Z,22.33
2018-05-15T13:09:08.990Z,22.23
2018-05-15T13:10:36.514Z,22.16
2018-05-15T13:12:04.021Z,22.13
2018-05-15T13:13:31.270Z,22.14
2018-05-15T13:14:59.110Z,22.12
2018-05-15T13:16:26.483Z,22.16
2018-05-15T13:17:54.097Z,22.17
2018-05-15T13:19:22.817Z,22.18
2018-05-15T13:20:49.279Z,22.24
2018-05-15T13:22:17.953Z,22.20
2018-05-15T13:23:44.304Z,22.16
2018-05-15T13:25:11.660Z,22.11
2018-05-15T13:26:40.278Z,22.05
2018-05-15T13:28:06.840Z,21.92
2018-05-15T13:29:34.337Z,21.85
2018-05-15T13:31:01.729Z,21.74
2018-05-15T13:32:30.130Z,21.64
2018-05-15T13:33:56.643Z,21.57
2018-05-15T13:35:24.412Z,21.50
2018-05-15T13:36:52.979Z,21.39
2018-05-15T13:38:20.662Z,21.30
2018-05-15T13:39:48.069Z,21.21
2018-05-15T13:41:14.642Z,21.08
2018-05-15T13:42:42.224Z,21.00
2018-05-15T13:44:09.660Z,20.96
2018-05-15T13:45:36.888Z,20.93
2018-05-15T13:47:04.459Z,20.92
2018-05-15T13:48:31.907Z,20.94
2018-05-15T13:49:59.211Z,20.93
2018-05-15T13:51:26.683Z,20.90
2018-05-15T13:52:55.053Z,20.84
2018-05-15T13:54:22.648Z,20.81
2018-05-15T13:55:49.128Z,20.81
2018-05-15T13:57:17.712Z,20.82
2018-05-15T13:58:44.385Z,20.82
2018-05-15T14:00:11.697Z,20.86
2018-05-15T14:01:39.178Z,20.84
2018-05-15T14:03:06.678Z,20.80
2018-05-15T14:04:34.200Z,20.76
2018-05-15T14:06:02.744Z,20.70
2018-05-15T14:07:29.053Z,20.70
2018-05-15T14:08:57.481Z,20.70
2018-05-15T14:10:24.941Z,20.71
2018-05-15T14:11:51.230Z,20.70
2018-05-15T14:13:18.744Z,20.66
2018-05-15T14:14:47.196Z,20.65
2018-05-15T14:16:13.801Z,20.64
2018-05-15T14:17:41.176Z,20.64
2018-05-15T14:19:09.810Z,20.64
2018-05-15T14:20:36.246Z,20.65
2018-05-15T14:22:03.806Z,20.64
2018-05-15T14:23:31.447Z,20.65
2018-05-15T14:24:58.852Z,20.67
2018-05-15T14:26:26.391Z,20.68
2018-05-15T14:27:55.096Z,20.64
2018-05-15T14:29:21.536Z,20.62
2018-05-15T14:30:49.172Z,20.59
2018-05-15T14:32:16.716Z,20.56
2018-05-15T14:33:44.210Z,20.50
2018-05-15T14:35:11.697Z,20.43
2018-05-15T14:36:39.272Z,20.38
2018-05-15T14:38:06.633Z,20.33
2018-05-15T14:39:34.155Z,20.30
2018-05-15T14:41:02.638Z,20.28
2018-05-15T14:42:30.030Z,20.26
2018-05-15T14:43:56.310Z,20.26
2018-05-15T14:45:23.748Z,20.25
2018-05-15T14:46:52.600Z,20.26
2018-05-15T14:48:19.025Z,20.23
2018-05-15T14:49:47.460Z,20.21
2018-05-15T14:51:15.010Z,20.18
2018-05-15T14:52:41.591Z,20.15
2018-05-15T14:54:10.017Z,20.14
2018-05-15T14:55:36.374Z,20.15
2018-05-15T14:57:03.592Z,20.18
2018-05-15T14:58:31.094Z,20.22
2018-05-15T14:59:58.518Z,20.26
2018-05-15T15:01:26.072Z,20.30
2018-05-15T15:02:53.465Z,20.37
2018-05-15T15:04:21.965Z,20.43
2018-05-15T15:05:48.445Z,20.47
2018-05-15T15:07:16.060Z,20.48
2018-05-15T15:08:43.289Z,20.51
2018-05-15T15:10:11.932Z,20.56
2018-05-15T15:11:38.373Z,20.61
2018-05-15T15:13:05.922Z,20.62
2018-05-15T15:14:33.485Z,20.63
2018-05-15T15:16:00.816Z,20.62
2018-05-15T15:17:29.552Z,20.61
2018-05-15T15:18:55.879Z,20.61
2018-05-15T15:20:23.472Z,20.58
2018-05-15T15:21:50.797Z,20.56
2018-05-15T15:23:18.234Z,20.55
2018-05-15T15:24:46.821Z,20.57
2018-05-15T15:26:13.255Z,20.57
2018-05-15T15:27:40.683Z,20.56
2018-05-15T15:29:09.182Z,20.54
2018-05-15T15:30:35.677Z,20.54
2018-05-15T15:32:03.253Z,20.52
2018-05-15T15:33:30.589Z,20.52
2018-05-15T15:34:58.181Z,20.49
2018-05-15T15:36:25.732Z,20.48
2018-05-15T15:37:53.143Z,20.49
2018-05-15T15:39:20.808Z,20.49
2018-05-15T15:40:49.093Z,20.50
2018-05-15T15:42:15.807Z,20.51
2018-05-15T15:43:43.273Z,20.54
2018-05-15T15:45:11.780Z,20.56
2018-05-15T15:46:38.262Z,20.60
2018-05-15T15:48:05.716Z,20.65
2018-05-15T15:49:33.223Z,20.68
2018-05-15T15:51:00.455Z,20.70
2018-05-15T15:52:27.991Z,20.70
2018-05-15T15:53:55.379Z,20.69
2018-05-15T15:55:23.788Z,20.62
2018-05-15T15:56:50.258Z,20.58
2018-05-15T15:58:17.865Z,20.56
2018-05-15T15:59:45.229Z,20.57
2018-05-15T16:01:12.717Z,20.55
2018-05-15T16:02:40.203Z,20.53
2018-05-15T16:04:07.685Z,20.54
2018-05-15T16:05:35.201Z,20.53
2018-05-15T16:07:02.714Z,20.54
2018-05-15T16:08:29.958Z,20.54
2018-05-15T16:09:57.463Z,20.53
2018-05-15T16:11:24.717Z,20.50
2018-05-15T16:12:53.260Z,20.47
2018-05-15T16:14:19.638Z,20.43
2018-05-15T16:15:47.133Z,20.39
2018-05-15T16:17:14.567Z,20.36
2018-05-15T16:18:42.028Z,20.35
2018-05-15T16:20:10.659Z,20.36
2018-05-15T16:21:37.004Z,20.35
2018-05-15T16:23:04.383Z,20.33
2018-05-15T16:24:31.996Z,20.31
2018-05-15T16:25:59.593Z,20.29
2018-05-15T16:27:26.972Z,20.28
2018-05-15T16:28:54.381Z,20.27
2018-05-15T16:30:21.954Z,20.27
2018-05-15T16:31:49.604Z,20.27
2018-05-15T16:33:17.061Z,20.24
2018-05-15T16:34:45.418Z,20.21
2018-05-15T16:36:12.008Z,20.19
2018-05-15T16:37:39.623Z,20.15
2018-05-15T16:39:07.968Z,20.13
2018-05-15T16:40:34.510Z,20.12
2018-05-15T16:42:01.935Z,20.10
2018-05-15T16:43:29.246Z,20.05
2018-05-15T16:44:56.765Z,20.02
2018-05-15T16:46:25.285Z,20.01
2018-05-15T16:47:51.800Z,19.99
2018-05-15T16:49:19.258Z,19.98
2018-05-15T16:50:46.611Z,19.97
2018-05-15T16:52:14.295Z,19.96
2018-05-15T16:53:41.693Z,19.95
2018-05-15T16:55:09.193Z,19.94
2018-05-15T16:56:37.737Z,19.92
2018-05-15T16:58:04.064Z,19.89
2018-05-15T16:59:31.459Z,19.87
2018-05-15T17:01:00.024Z,19.85
2018-05-15T17:02:26.413Z,19.82
2018-05-15T17:03:53.908Z,19.80
2018-05-15T17:05:21.375Z,19.77
2018-05-15T17:06:49.890Z,19.74
2018-05-15T17:08:17.519Z,19.73
2018-05-15T17:09:44.942Z,19.71
2018-05-15T17:11:11.346Z,19.68
2018-05-15T17:12:39.978Z,19.65
2018-05-15T17:14:06.229Z,19.61
2018-05-15T17:15:33.728Z,19.58
2018-05-15T17:17:01.203Z,19.55
2018-05-15T17:18:29.456Z,19.51
2018-05-15T17:19:55.817Z,19.48
2018-05-15T17:21:23.400Z,19.46
2018-05-15T17:22:51.069Z,19.44
2018-05-15T17:24:18.278Z,19.41
2018-05-15T17:25:46.884Z,19.40
2018-05-15T17:27:13.284Z,19.37
2018-05-15T17:28:40.711Z,19.34
2018-05-15T17:30:08.126Z,19.31
2018-05-15T17:31:35.567Z,19.28
2018-05-15T17:33:02.975Z,19.23
2018-05-15T17:34:30.514Z,19.18
2018-05-15T17:35:57.993Z,19.14
2018-05-15T17:37:25.482Z,19.10
2018-05-15T17:38:53.052Z,19.05
2018-05-15T17:40:20.428Z,19.01
2018-05-15T17:41:48.006Z,18.98
2018-05-15T17:43:15.424Z,18.93
2018-05-15T17:44:42.937Z,18.90
2018-05-15T17:46:10.260Z,18.85
2018-05-15T17:47:37.758Z,18.83
2018-05-15T17:49:05.409Z,18.78
2018-05-15T17:50:33.741Z,18.74
2018-05-15T17:52:00.109Z,18.68
2018-05-15T17:53:28.608Z,18.62
2018-05-15T17:54:55.970Z,18.59
2018-05-15T17:56:22.391Z,18.52
2018-05-15T17:57:49.720Z,18.45
2018-05-15T17:59:18.216Z,18.40
2018-05-15T18:00:44.718Z,18.38
2018-05-15T18:02:13.090Z,18.30
2018-05-15T18:03:39.637Z,18.24
2018-05-15T18:05:07.146Z,18.16
2018-05-15T18:06:34.562Z,18.09
2018-05-15T18:08:03.099Z,18.00
2018-05-15T18:09:29.324Z,17.98
2018-05-15T18:10:56.749Z,17.96
2018-05-15T18:12:25.150Z,17.97
2018-05-15T18:13:51.610Z,17.96
2018-05-15T18:15:19.039Z,17.93
2018-05-15T18:16:46.420Z,17.86
2018-05-15T18:18:13.795Z,17.80
2018-05-15T18:19:41.299Z,17.75
2018-05-15T18:21:08.600Z,17.68
2018-05-15T18:22:36.952Z,17.63
2018-05-15T18:24:03.352Z,17.58
2018-05-15T18:25:30.733Z,17.53
2018-05-15T18:26:58.212Z,17.53
2018-05-15T18:28:25.653Z,17.51
2018-05-15T18:29:53.031Z,17.44
2018-05-15T18:31:20.502Z,17.45
2018-05-15T18:32:48.106Z,17.42
2018-05-15T18:34:15.510Z,17.40
2018-05-15T18:35:43.128Z,17.30
2018-05-15T18:37:10.478Z,17.25
2018-05-15T18:38:38.086Z,17.19
2018-05-15T18:40:05.311Z,17.20
2018-05-15T18:41:32.836Z,17.23
2018-05-15T18:43:01.162Z,17.16
2018-05-15T18:44:28.650Z,17.11
2018-05-15T18:45:56.016Z,17.11